Terminal Aerodrome Forecast
Issued by NWS

Home | Current Version | Previous Version | Text Only | Print | Product List | Glossary On
Versions: 1 2 3 4 5 6 7 8 9 10 11 12 13 14 15 16 17 18 19
000
FTUS43 KJKL 241816 RRA
TAFSME
TAF
KSME 241816Z 2418/2518 18005KT P6SM VCTS OVC020CB
      TEMPO 2419/2422 VRB25KT 1SM TSRA BR BKN010CB
     FM250000 26007KT P6SM VCSH BKN015
     FM250800 24005KT P6SM VCSH BKN008=

USA.gov is the U.S. government's official web portal to all federal, state and local government web resources and services.